createdAt,value
2023-03-12T00:00:09.030Z,3.33
2023-03-12T00:02:35.718Z,3.00
2023-03-12T00:05:02.669Z,4.30
2023-03-12T00:07:29.218Z,3.47
2023-03-12T00:09:55.825Z,2.73
2023-03-12T00:12:22.464Z,3.60
2023-03-12T00:14:49.054Z,3.97
2023-03-12T00:17:15.621Z,4.57
2023-03-12T00:19:42.219Z,3.27
2023-03-12T00:22:08.805Z,3.67
2023-03-12T00:24:35.381Z,3.37
2023-03-12T00:27:01.961Z,3.53
2023-03-12T00:29:28.556Z,3.00
2023-03-12T00:31:55.146Z,2.70
2023-03-12T00:34:21.750Z,4.60
2023-03-12T00:36:48.312Z,3.47
2023-03-12T00:39:14.924Z,3.90
2023-03-12T00:41:41.665Z,4.43
2023-03-12T00:44:08.349Z,4.40
2023-03-12T00:46:34.989Z,3.60
2023-03-12T00:49:02.051Z,4.50
2023-03-12T00:51:28.619Z,6.40
2023-03-12T00:53:56.018Z,3.87
2023-03-12T00:56:24.048Z,2.43
2023-03-12T00:58:50.747Z,2.90
2023-03-12T01:01:17.670Z,2.30
2023-03-12T01:03:45.566Z,2.43
2023-03-12T01:06:12.262Z,4.37
2023-03-12T01:08:39.023Z,2.37
2023-03-12T01:11:06.474Z,4.43
2023-03-12T01:13:33.332Z,3.17
2023-03-12T01:16:00.179Z,4.47
2023-03-12T01:18:26.885Z,5.87
2023-03-12T01:20:53.505Z,5.53
2023-03-12T01:23:20.157Z,2.47
2023-03-12T01:25:47.542Z,3.83
2023-03-12T01:28:14.318Z,4.13
2023-03-12T01:30:40.913Z,2.17
2023-03-12T01:33:07.577Z,4.47
2023-03-12T01:35:39.481Z,5.67
2023-03-12T01:38:13.357Z,4.63
2023-03-12T01:40:41.405Z,5.07
2023-03-12T01:43:26.001Z,2.87
2023-03-12T01:46:05.131Z,3.63
2023-03-12T01:48:39.656Z,5.77
2023-03-12T01:51:09.081Z,2.53
2023-03-12T01:53:37.904Z,3.00
2023-03-12T01:56:05.492Z,3.60
2023-03-12T01:58:36.329Z,4.30
2023-03-12T02:01:02.989Z,6.33
2023-03-12T02:03:32.008Z,4.80
2023-03-12T02:06:06.904Z,6.37
2023-03-12T02:08:38.304Z,3.80
2023-03-12T02:11:05.390Z,4.20
2023-03-12T02:13:32.245Z,6.10
2023-03-12T02:15:58.980Z,5.73
2023-03-12T02:18:25.693Z,2.57
2023-03-12T02:21:18.310Z,2.73
2023-03-12T02:23:54.903Z,4.90
2023-03-12T02:26:23.664Z,2.83
2023-03-12T02:28:51.149Z,3.00
2023-03-12T02:31:21.871Z,3.20
2023-03-12T02:33:48.605Z,2.40
2023-03-12T02:36:15.271Z,3.80
2023-03-12T02:38:45.245Z,4.23
2023-03-12T02:41:27.628Z,5.50
2023-03-12T02:43:54.163Z,4.63
2023-03-12T02:46:21.395Z,3.03
2023-03-12T02:48:48.073Z,4.93
2023-03-12T02:51:14.912Z,3.00
2023-03-12T02:53:41.600Z,3.47
2023-03-12T02:56:08.424Z,4.83
2023-03-12T02:58:36.252Z,3.80
2023-03-12T03:01:03.260Z,4.53
2023-03-12T03:03:29.837Z,5.63
2023-03-12T03:05:56.940Z,2.73
2023-03-12T03:08:24.003Z,6.57
2023-03-12T03:10:52.494Z,5.67
2023-03-12T03:13:19.098Z,5.23
2023-03-12T03:15:45.942Z,4.53
2023-03-12T03:18:12.661Z,6.53
2023-03-12T03:20:39.325Z,3.50
2023-03-12T03:23:05.916Z,2.87
2023-03-12T03:25:33.669Z,2.00
2023-03-12T03:28:00.489Z,5.70
2023-03-12T03:30:27.275Z,4.00
2023-03-12T03:32:54.316Z,3.43
2023-03-12T03:35:22.593Z,5.80
2023-03-12T03:37:49.393Z,6.03
2023-03-12T03:40:16.046Z,3.90
2023-03-12T03:42:42.946Z,4.10
2023-03-12T03:45:10.754Z,4.67
2023-03-12T03:47:39.225Z,5.03
2023-03-12T03:50:06.813Z,3.70
2023-03-12T03:52:34.209Z,4.17
2023-03-12T03:55:01.614Z,3.00
2023-03-12T03:57:31.407Z,3.50
2023-03-12T04:00:00.306Z,4.33
2023-03-12T04:02:36.630Z,3.47
2023-03-12T04:05:03.705Z,2.77
2023-03-12T04:07:30.694Z,4.17
2023-03-12T04:09:58.227Z,2.67
2023-03-12T04:12:28.099Z,4.43
2023-03-12T04:14:54.762Z,4.93
2023-03-12T04:17:21.895Z,4.53
2023-03-12T04:19:48.587Z,4.70
2023-03-12T04:22:15.345Z,3.40
2023-03-12T04:24:41.995Z,4.70
2023-03-12T04:27:08.585Z,7.27
2023-03-12T04:29:35.442Z,6.57
2023-03-12T04:32:02.168Z,4.60
2023-03-12T04:34:28.780Z,7.37
2023-03-12T04:36:56.428Z,3.60
2023-03-12T04:39:23.128Z,4.93
2023-03-12T04:41:51.716Z,4.73
2023-03-12T04:44:18.520Z,4.43
2023-03-12T04:46:45.374Z,4.93
2023-03-12T04:49:16.006Z,5.93
2023-03-12T04:51:43.359Z,4.67
2023-03-12T04:54:10.088Z,5.60
2023-03-12T04:56:38.447Z,4.60
2023-03-12T04:59:05.683Z,3.23
2023-03-12T05:01:35.870Z,4.57
2023-03-12T05:04:07.227Z,4.10
2023-03-12T05:06:35.794Z,6.27
2023-03-12T05:09:03.921Z,4.03
2023-03-12T05:11:30.561Z,6.10
2023-03-12T05:13:57.682Z,5.97
2023-03-12T05:16:24.431Z,3.73
2023-03-12T05:18:51.406Z,8.20
2023-03-12T05:21:20.997Z,5.40
2023-03-12T05:23:50.716Z,3.97
2023-03-12T05:26:23.012Z,5.17
2023-03-12T05:28:52.283Z,4.17
2023-03-12T05:31:20.519Z,4.47
2023-03-12T05:33:48.586Z,6.13
2023-03-12T05:36:17.451Z,2.63
2023-03-12T05:38:46.005Z,5.73
2023-03-12T05:41:23.262Z,6.30
2023-03-12T05:43:53.549Z,5.93
2023-03-12T05:46:21.057Z,5.33
2023-03-12T05:48:48.057Z,5.93
2023-03-12T05:51:16.527Z,8.77
2023-03-12T05:53:43.386Z,2.90
2023-03-12T05:56:13.993Z,3.03
2023-03-12T05:58:41.059Z,4.90
2023-03-12T06:01:17.980Z,8.37
2023-03-12T06:03:45.414Z,4.00
2023-03-12T06:06:12.732Z,5.70
2023-03-12T06:08:41.607Z,5.07
2023-03-12T06:11:09.872Z,6.60
2023-03-12T06:13:36.684Z,4.30
2023-03-12T06:16:11.571Z,6.27
2023-03-12T06:18:38.555Z,4.83
2023-03-12T06:21:20.399Z,6.73
2023-03-12T06:23:49.243Z,6.73
2023-03-12T06:26:22.014Z,7.90
2023-03-12T06:28:50.043Z,6.93
2023-03-12T06:31:18.075Z,5.00
2023-03-12T06:33:44.818Z,5.33
2023-03-12T06:36:12.274Z,5.80
2023-03-12T06:38:39.455Z,7.20
2023-03-12T06:41:11.363Z,5.70
2023-03-12T06:43:39.234Z,7.80
2023-03-12T06:46:07.845Z,5.97
2023-03-12T06:48:36.855Z,6.37
2023-03-12T06:51:04.730Z,7.33
2023-03-12T06:53:31.754Z,4.60
2023-03-12T06:55:58.589Z,9.20
2023-03-12T06:58:25.609Z,5.70
2023-03-12T07:00:53.470Z,6.63
2023-03-12T07:03:20.190Z,7.87
2023-03-12T07:05:48.783Z,6.27
2023-03-12T07:08:16.393Z,7.00
2023-03-12T07:10:43.327Z,9.13
2023-03-12T07:13:09.976Z,7.73
2023-03-12T07:15:36.913Z,5.70
2023-03-12T07:18:08.627Z,7.43
2023-03-12T07:20:44.121Z,10.27
2023-03-12T07:23:11.250Z,5.80
2023-03-12T07:25:40.098Z,5.80
2023-03-12T07:28:07.714Z,6.87
2023-03-12T07:30:35.059Z,6.87
2023-03-12T07:33:03.204Z,5.33
2023-03-12T07:35:31.371Z,6.10
2023-03-12T07:37:59.126Z,5.63
2023-03-12T07:40:25.903Z,5.93
2023-03-12T07:42:52.579Z,7.00
2023-03-12T07:45:20.509Z,4.73
2023-03-12T07:47:47.768Z,7.13
2023-03-12T07:50:14.922Z,5.33
2023-03-12T07:52:41.635Z,6.97
2023-03-12T07:55:09.531Z,5.53
2023-03-12T07:57:36.628Z,5.37
2023-03-12T08:00:07.291Z,6.30
2023-03-12T08:02:38.389Z,4.23
2023-03-12T08:05:06.497Z,5.70
2023-03-12T08:07:35.210Z,5.20
2023-03-12T08:10:03.827Z,6.40
2023-03-12T08:12:30.573Z,5.03
2023-03-12T08:14:57.218Z,6.03
2023-03-12T08:17:23.969Z,4.30
2023-03-12T08:19:50.611Z,5.97
2023-03-12T08:22:17.758Z,7.97
2023-03-12T08:24:44.416Z,5.50
2023-03-12T08:27:12.365Z,4.90
2023-03-12T08:29:39.662Z,6.07
2023-03-12T08:32:07.374Z,4.33
2023-03-12T08:34:34.949Z,5.87
2023-03-12T08:37:02.933Z,5.70
2023-03-12T08:39:29.848Z,5.57
2023-03-12T08:41:56.716Z,6.07
2023-03-12T08:44:23.589Z,5.63
2023-03-12T08:46:51.552Z,5.70
2023-03-12T08:49:18.958Z,6.00
2023-03-12T08:51:45.546Z,4.63
2023-03-12T08:54:12.163Z,5.10
2023-03-12T08:56:42.038Z,6.23
2023-03-12T08:59:12.922Z,5.97
2023-03-12T09:01:43.067Z,5.53
2023-03-12T09:04:10.832Z,6.53
2023-03-12T09:06:38.607Z,6.40
2023-03-12T09:09:05.815Z,6.10
2023-03-12T09:11:33.995Z,5.63
2023-03-12T09:14:49.875Z,5.10
2023-03-12T09:16:48.982Z,5.90
2023-03-12T09:19:16.020Z,6.40
2023-03-12T09:21:42.669Z,5.40
2023-03-12T09:24:10.296Z,5.00
2023-03-12T09:26:36.885Z,6.00
2023-03-12T09:29:03.521Z,5.03
2023-03-12T09:31:32.301Z,5.83
2023-03-12T09:33:59.017Z,4.43
2023-03-12T09:36:25.616Z,4.30
2023-03-12T09:38:52.262Z,5.13
2023-03-12T09:41:25.865Z,5.17
2023-03-12T09:44:00.116Z,4.23
2023-03-12T09:46:43.040Z,5.63
2023-03-12T09:49:38.490Z,5.77
2023-03-12T09:52:21.538Z,5.67
2023-03-12T09:54:59.328Z,4.50
2023-03-12T09:57:27.500Z,5.93
2023-03-12T09:59:54.258Z,5.97
2023-03-12T10:02:56.569Z,5.33
2023-03-12T10:06:01.431Z,5.93
2023-03-12T10:08:52.920Z,6.60
2023-03-12T10:11:37.289Z,6.60
2023-03-12T10:14:24.262Z,5.00
2023-03-12T10:17:12.396Z,5.90
2023-03-12T10:19:57.144Z,4.70
2023-03-12T10:22:36.602Z,5.87
2023-03-12T10:25:12.506Z,5.67
2023-03-12T10:27:40.589Z,7.90
2023-03-12T10:30:19.866Z,4.57
2023-03-12T10:32:52.132Z,5.27
2023-03-12T10:35:22.521Z,6.10
2023-03-12T10:37:54.510Z,6.73
2023-03-12T10:40:35.924Z,7.50
2023-03-12T10:43:04.529Z,6.37
2023-03-12T10:45:38.786Z,7.70
2023-03-12T10:48:09.059Z,6.37
2023-03-12T10:50:41.230Z,7.13
2023-03-12T10:53:23.891Z,6.30
2023-03-12T10:56:00.685Z,5.73
2023-03-12T10:58:33.475Z,7.40
2023-03-12T11:01:02.227Z,7.77
2023-03-12T11:03:30.362Z,7.00
2023-03-12T11:06:01.624Z,8.00
2023-03-12T11:08:35.579Z,8.57
2023-03-12T11:11:05.428Z,6.27
2023-03-12T11:13:40.708Z,6.63
2023-03-12T11:16:16.777Z,6.33
2023-03-12T11:18:59.957Z,8.17
2023-03-12T11:21:26.930Z,6.70
2023-03-12T11:23:56.570Z,7.00
2023-03-12T11:26:49.429Z,7.17
2023-03-12T11:29:31.565Z,6.07
2023-03-12T11:32:17.276Z,7.37
2023-03-12T11:34:49.823Z,5.97
2023-03-12T11:37:26.046Z,9.13
2023-03-12T11:40:36.680Z,6.73
2023-03-12T11:43:12.782Z,10.57
2023-03-12T11:46:08.810Z,6.93
2023-03-12T11:48:56.902Z,8.00
2023-03-12T11:51:44.157Z,6.80
2023-03-12T11:54:29.472Z,8.90
2023-03-12T11:57:06.163Z,6.57
2023-03-12T11:59:46.066Z,7.83
2023-03-12T12:02:56.985Z,5.93
2023-03-12T12:05:58.443Z,9.02
2023-03-12T12:08:59.081Z,7.23
2023-03-12T12:11:51.160Z,7.25
2023-03-12T12:14:17.714Z,9.18
2023-03-12T12:16:50.482Z,8.98
2023-03-12T12:19:28.098Z,6.47
2023-03-12T12:22:25.566Z,5.27
2023-03-12T12:25:19.735Z,6.03
2023-03-12T12:28:08.148Z,6.73
2023-03-12T12:30:42.198Z,7.10
2023-03-12T12:33:15.532Z,5.75
2023-03-12T12:35:43.710Z,7.72
2023-03-12T12:38:18.303Z,6.00
2023-03-12T12:40:53.021Z,7.47
2023-03-12T12:43:28.155Z,4.95
2023-03-12T12:45:59.615Z,6.47
2023-03-12T12:48:50.608Z,5.97
2023-03-12T12:51:21.547Z,7.03
2023-03-12T12:54:05.133Z,5.20
2023-03-12T12:56:54.008Z,6.43
2023-03-12T12:59:38.188Z,6.07
2023-03-12T13:02:35.690Z,8.32
2023-03-12T13:05:03.131Z,7.18
2023-03-12T13:07:34.351Z,6.63
2023-03-12T13:10:07.223Z,5.85
2023-03-12T13:12:47.602Z,6.90
2023-03-12T13:15:29.660Z,10.85
2023-03-12T13:17:56.196Z,8.75
2023-03-12T13:20:40.260Z,7.93
2023-03-12T13:23:32.433Z,6.88
2023-03-12T13:26:08.018Z,10.50
2023-03-12T13:28:56.925Z,8.07
2023-03-12T13:31:29.349Z,8.38
2023-03-12T13:34:20.542Z,11.20
2023-03-12T13:37:03.773Z,10.38
2023-03-12T13:39:35.637Z,10.25
2023-03-12T13:42:25.396Z,8.35
2023-03-12T13:44:53.988Z,7.47
2023-03-12T13:47:30.353Z,7.72
2023-03-12T13:50:01.809Z,12.35
2023-03-12T13:52:33.233Z,9.43
2023-03-12T13:55:05.915Z,8.20
2023-03-12T13:57:45.891Z,10.15
2023-03-12T14:00:36.650Z,9.07
2023-03-12T14:03:12.352Z,7.57
2023-03-12T14:06:05.733Z,12.70
2023-03-12T14:08:54.367Z,9.93
2023-03-12T14:11:21.198Z,8.20
2023-03-12T14:14:12.455Z,8.02
2023-03-12T14:16:43.735Z,11.65
2023-03-12T14:19:16.480Z,9.32
2023-03-12T14:21:46.012Z,10.45
2023-03-12T14:24:35.360Z,8.98
2023-03-12T14:27:04.861Z,10.25
2023-03-12T14:29:48.625Z,6.88
2023-03-12T14:32:24.034Z,6.38
2023-03-12T14:35:22.042Z,9.10
2023-03-12T14:38:04.859Z,9.88
2023-03-12T14:40:46.846Z,9.32
2023-03-12T14:43:25.881Z,9.07
2023-03-12T14:46:02.095Z,5.07
2023-03-12T14:48:38.270Z,8.15
2023-03-12T14:51:07.509Z,7.82
2023-03-12T14:53:39.527Z,9.70
2023-03-12T14:56:12.835Z,11.70
2023-03-12T14:58:48.215Z,11.00
2023-03-12T15:01:31.124Z,11.77
2023-03-12T15:04:04.004Z,8.13
2023-03-12T15:06:34.554Z,11.68
2023-03-12T15:09:04.876Z,10.75
2023-03-12T15:11:35.286Z,9.18
2023-03-12T15:14:14.533Z,8.10
2023-03-12T15:16:43.593Z,7.63
2023-03-12T15:19:14.324Z,9.98
2023-03-12T15:21:41.032Z,9.73
2023-03-12T15:24:13.262Z,8.77
2023-03-12T15:26:41.413Z,9.93
2023-03-12T15:29:13.819Z,10.57
2023-03-12T15:31:49.806Z,9.57
2023-03-12T15:34:33.777Z,10.48
2023-03-12T15:37:19.050Z,7.82
2023-03-12T15:39:49.802Z,10.20
2023-03-12T15:42:19.609Z,13.38
2023-03-12T15:44:49.661Z,11.63
2023-03-12T15:47:22.680Z,12.85
2023-03-12T15:50:18.791Z,13.93
2023-03-12T15:53:17.993Z,11.98
2023-03-12T15:56:02.916Z,9.80
2023-03-12T15:58:35.481Z,11.27
2023-03-12T16:01:09.592Z,10.23
2023-03-12T16:03:39.755Z,13.63
2023-03-12T16:06:26.841Z,10.10
2023-03-12T16:08:58.069Z,13.13
2023-03-12T16:11:27.465Z,12.93
2023-03-12T16:14:34.517Z,9.75
2023-03-12T16:17:01.188Z,9.85
2023-03-12T16:19:30.295Z,16.02
2023-03-12T16:21:57.184Z,8.70
2023-03-12T16:24:23.851Z,10.85
2023-03-12T16:26:53.395Z,13.00
2023-03-12T16:29:21.078Z,11.98
2023-03-12T16:31:54.297Z,11.43
2023-03-12T16:34:21.566Z,14.43
2023-03-12T16:36:48.168Z,12.50
2023-03-12T16:39:15.089Z,12.93
2023-03-12T16:41:42.848Z,11.82
2023-03-12T16:44:15.846Z,15.23
2023-03-12T16:46:44.696Z,9.18
2023-03-12T16:49:16.200Z,11.50
2023-03-12T16:51:43.183Z,13.07
2023-03-12T16:54:12.050Z,11.25
2023-03-12T16:56:43.201Z,12.98
2023-03-12T16:59:28.301Z,16.80
2023-03-12T17:01:56.586Z,11.98
2023-03-12T17:04:24.488Z,13.57
2023-03-12T17:06:51.934Z,15.32
2023-03-12T17:09:20.318Z,10.88
2023-03-12T17:11:51.808Z,14.63
2023-03-12T17:14:22.798Z,14.38
2023-03-12T17:16:50.642Z,11.23
2023-03-12T17:19:18.111Z,13.52
2023-03-12T17:21:46.134Z,12.43
2023-03-12T17:24:17.536Z,15.80
2023-03-12T17:26:49.105Z,11.30
2023-03-12T17:29:15.967Z,15.10
2023-03-12T17:31:42.540Z,11.63
2023-03-12T17:34:09.356Z,12.80
2023-03-12T17:36:37.846Z,14.27
2023-03-12T17:39:04.884Z,14.52
2023-03-12T17:41:32.545Z,13.45
2023-03-12T17:44:01.709Z,15.25
2023-03-12T17:46:30.175Z,10.65
2023-03-12T17:48:56.957Z,11.95
2023-03-12T17:51:23.667Z,11.93
2023-03-12T17:53:50.301Z,14.20
2023-03-12T17:56:18.169Z,13.65
2023-03-12T17:58:45.643Z,11.93
2023-03-12T18:01:13.525Z,14.18
2023-03-12T18:03:40.458Z,11.82
2023-03-12T18:06:07.126Z,15.63
2023-03-12T18:08:33.754Z,13.27
2023-03-12T18:11:01.735Z,14.10
2023-03-12T18:13:31.815Z,11.00
2023-03-12T18:15:59.362Z,12.27
2023-03-12T18:18:26.629Z,14.00
2023-03-12T18:20:53.323Z,11.82
2023-03-12T18:23:20.320Z,15.05
2023-03-12T18:25:47.094Z,13.25
2023-03-12T18:28:15.294Z,14.95
2023-03-12T18:30:41.935Z,15.05
2023-03-12T18:33:08.522Z,13.77
2023-03-12T18:35:35.229Z,17.08
2023-03-12T18:38:01.921Z,14.48
2023-03-12T18:40:29.640Z,12.52
2023-03-12T18:43:00.432Z,16.45
2023-03-12T18:45:28.072Z,14.02
2023-03-12T18:47:54.921Z,17.63
2023-03-12T18:50:21.680Z,16.02
2023-03-12T18:52:48.229Z,17.30
2023-03-12T18:55:18.337Z,14.18
2023-03-12T18:57:47.213Z,16.83
2023-03-12T19:00:17.709Z,12.57
2023-03-12T19:02:50.653Z,12.80
2023-03-12T19:05:17.540Z,13.40
2023-03-12T19:07:44.233Z,14.60
2023-03-12T19:10:12.081Z,14.82
2023-03-12T19:12:50.849Z,12.50
2023-03-12T19:15:18.800Z,12.82
2023-03-12T19:17:45.420Z,11.43
2023-03-12T19:20:13.052Z,15.50
2023-03-12T19:22:39.747Z,13.60
2023-03-12T19:25:06.618Z,18.48
2023-03-12T19:27:33.398Z,15.23
2023-03-12T19:30:00.043Z,13.68
2023-03-12T19:32:33.360Z,13.38
2023-03-12T19:35:10.974Z,14.52
2023-03-12T19:37:37.572Z,12.15
2023-03-12T19:40:05.909Z,12.02
2023-03-12T19:42:32.827Z,14.45
2023-03-12T19:44:59.554Z,11.80
2023-03-12T19:47:26.760Z,14.23
2023-03-12T19:49:53.455Z,13.53
2023-03-12T19:52:20.207Z,12.65
2023-03-12T19:54:54.634Z,17.00
2023-03-12T19:57:29.701Z,14.85
2023-03-12T19:59:56.413Z,15.38
2023-03-12T20:02:23.123Z,15.63
2023-03-12T20:04:50.002Z,12.45
2023-03-12T20:07:18.406Z,11.57
2023-03-12T20:09:45.309Z,13.93
2023-03-12T20:12:11.896Z,17.63
2023-03-12T20:14:39.803Z,12.50
2023-03-12T20:17:07.397Z,15.48
2023-03-12T20:19:34.049Z,13.63
2023-03-12T20:22:00.719Z,9.68
2023-03-12T20:24:27.436Z,12.52
2023-03-12T20:26:54.085Z,11.13
2023-03-12T20:29:20.645Z,13.33
2023-03-12T20:31:47.388Z,11.13
2023-03-12T20:34:14.103Z,16.98
2023-03-12T20:36:40.691Z,11.70
2023-03-12T20:39:07.306Z,11.57
2023-03-12T20:41:34.331Z,11.13
2023-03-12T20:44:00.922Z,14.70
2023-03-12T20:46:27.573Z,15.88
2023-03-12T20:48:56.618Z,13.45
2023-03-12T20:51:24.750Z,13.07
2023-03-12T20:53:51.426Z,17.10
2023-03-12T20:56:18.052Z,13.23
2023-03-12T20:58:44.675Z,10.97
2023-03-12T21:01:11.397Z,9.60
2023-03-12T21:03:37.994Z,11.20
2023-03-12T21:06:04.842Z,16.25
2023-03-12T21:08:32.891Z,12.20
2023-03-12T21:10:59.563Z,10.47
2023-03-12T21:13:26.663Z,10.15
2023-03-12T21:15:53.359Z,15.05
2023-03-12T21:18:19.939Z,14.48
2023-03-12T21:20:46.807Z,11.43
2023-03-12T21:23:13.566Z,15.18
2023-03-12T21:25:41.297Z,13.27
2023-03-12T21:28:09.733Z,9.97
2023-03-12T21:30:36.927Z,18.67
2023-03-12T21:33:03.960Z,11.07
2023-03-12T21:35:30.700Z,9.83
2023-03-12T21:37:57.511Z,13.95
2023-03-12T21:40:24.677Z,9.10
2023-03-12T21:42:51.297Z,12.75
2023-03-12T21:45:17.935Z,10.88
2023-03-12T21:47:44.575Z,12.80
2023-03-12T21:50:11.775Z,14.27
2023-03-12T21:52:47.688Z,14.90
2023-03-12T21:55:15.051Z,14.73
2023-03-12T21:57:41.902Z,12.30
2023-03-12T22:00:13.112Z,10.95
2023-03-12T22:02:44.649Z,16.07
2023-03-12T22:05:12.183Z,12.82
2023-03-12T22:07:39.051Z,14.30
2023-03-12T22:10:07.468Z,11.83
2023-03-12T22:12:34.131Z,20.20
2023-03-12T22:15:00.727Z,13.33
2023-03-12T22:17:27.790Z,15.43
2023-03-12T22:19:54.596Z,15.57
2023-03-12T22:22:22.471Z,14.43
2023-03-12T22:24:49.053Z,13.73
2023-03-12T22:27:15.664Z,17.30
2023-03-12T22:29:43.502Z,13.90
2023-03-12T22:32:10.125Z,16.50
2023-03-12T22:34:37.522Z,14.93
2023-03-12T22:37:04.119Z,15.43
2023-03-12T22:39:30.723Z,15.82
2023-03-12T22:41:57.914Z,15.82
2023-03-12T22:44:24.517Z,12.93
2023-03-12T22:46:52.072Z,15.63
2023-03-12T22:49:18.875Z,13.60
2023-03-12T22:51:45.921Z,18.35
2023-03-12T22:54:12.611Z,10.40
2023-03-12T22:56:39.991Z,12.73
2023-03-12T22:59:07.515Z,13.88
2023-03-12T23:01:34.402Z,14.40
2023-03-12T23:04:01.332Z,13.97
2023-03-12T23:06:30.110Z,9.93
2023-03-12T23:08:58.237Z,15.40
2023-03-12T23:11:27.200Z,14.68
2023-03-12T23:13:54.644Z,17.27
2023-03-12T23:16:25.081Z,11.55
2023-03-12T23:18:52.382Z,15.98
2023-03-12T23:21:21.952Z,16.50
2023-03-12T23:23:49.869Z,13.20
2023-03-12T23:26:19.661Z,15.40
2023-03-12T23:28:47.399Z,16.30
2023-03-12T23:31:16.249Z,10.77
2023-03-12T23:33:44.256Z,14.70
2023-03-12T23:36:14.509Z,17.10
2023-03-12T23:38:42.030Z,9.90
2023-03-12T23:41:18.269Z,12.23
2023-03-12T23:43:45.692Z,16.98
2023-03-12T23:46:14.080Z,14.75
2023-03-12T23:48:41.121Z,11.35
2023-03-12T23:51:09.416Z,10.38
2023-03-12T23:53:37.102Z,17.70
2023-03-12T23:56:06.391Z,10.65
2023-03-12T23:58:33.078Z,11.70
